sensor_id;sensor_type;location;lat;lon;timestamp;pressure;altitude;pressure_sealevel;temperature;humidity
43312;BME280;30041;48.300;16.352;2023-08-07T00:01:39;98900.22;;;22.59;52.86
43312;BME280;30041;48.300;16.352;2023-08-07T00:04:05;98906.72;;;22.58;52.99
43312;BME280;30041;48.300;16.352;2023-08-07T00:06:30;98904.28;;;22.56;53.04
43312;BME280;30041;48.300;16.352;2023-08-07T00:08:55;98900.53;;;22.57;53.11
43312;BME280;30041;48.300;16.352;2023-08-07T00:11:21;98905.09;;;22.57;53.16
43312;BME280;30041;48.300;16.352;2023-08-07T00:13:46;98901.31;;;22.58;53.08
43312;BME280;30041;48.300;16.352;2023-08-07T00:16:12;98909.41;;;22.58;53.08
43312;BME280;30041;48.300;16.352;2023-08-07T00:18:37;98904.28;;;22.56;52.90
43312;BME280;30041;48.300;16.352;2023-08-07T00:21:03;98905.91;;;22.57;52.87
43312;BME280;30041;48.300;16.352;2023-08-07T00:23:28;98895.38;;;22.56;52.91
43312;BME280;30041;48.300;16.352;2023-08-07T00:25:53;98904.28;;;22.56;53.05
43312;BME280;30041;48.300;16.352;2023-08-07T00:28:19;98916.41;;;22.54;53.07
43312;BME280;30041;48.300;16.352;2023-08-07T00:30:44;98914.28;;;22.56;52.97
43312;BME280;30041;48.300;16.352;2023-08-07T00:33:10;98916.16;;;22.55;52.81
43312;BME280;30041;48.300;16.352;2023-08-07T00:35:35;98918.03;;;22.55;53.08
43312;BME280;30041;48.300;16.352;2023-08-07T00:38:01;98909.13;;;22.54;52.90
43312;BME280;30041;48.300;16.352;2023-08-07T00:40:26;98912.91;;;22.53;53.16
43312;BME280;30041;48.300;16.352;2023-08-07T00:42:51;98924.28;;;22.55;52.82
43312;BME280;30041;48.300;16.352;2023-08-07T00:45:17;98923.44;;;22.55;52.74
43312;BME280;30041;48.300;16.352;2023-08-07T00:47:43;98917.22;;;22.54;52.98
43312;BME280;30041;48.300;16.352;2023-08-07T00:50:09;98923.44;;;22.55;52.71
43312;BME280;30041;48.300;16.352;2023-08-07T00:52:34;98920.72;;;22.55;52.83
43312;BME280;30041;48.300;16.352;2023-08-07T00:55:00;98925.59;;;22.53;52.93
43312;BME280;30041;48.300;16.352;2023-08-07T00:57:25;98931.00;;;22.53;52.87
43312;BME280;30041;48.300;16.352;2023-08-07T00:59:51;98934.75;;;22.52;52.69
43312;BME280;30041;48.300;16.352;2023-08-07T01:02:18;98940.97;;;22.52;52.96
43312;BME280;30041;48.300;16.352;2023-08-07T01:04:44;98942.06;;;22.51;53.00
43312;BME280;30041;48.300;16.352;2023-08-07T01:07:09;98945.81;;;22.50;52.87
43312;BME280;30041;48.300;16.352;2023-08-07T01:09:35;98941.25;;;22.51;52.67
43312;BME280;30041;48.300;16.352;2023-08-07T01:17:20;98943.97;;;22.51;52.94
43312;BME280;30041;48.300;16.352;2023-08-07T01:19:47;98941.25;;;22.51;52.84
43312;BME280;30041;48.300;16.352;2023-08-07T01:22:16;98943.13;;;22.50;52.82
43312;BME280;30041;48.300;16.352;2023-08-07T01:24:47;98953.13;;;22.50;52.70
43312;BME280;30041;48.300;16.352;2023-08-07T01:35:22;98963.34;;;22.48;52.75
43312;BME280;30041;48.300;16.352;2023-08-07T01:37:48;98955.25;;;22.48;52.82
43312;BME280;30041;48.300;16.352;2023-08-07T01:40:16;98966.63;;;22.50;52.59
43312;BME280;30041;48.300;16.352;2023-08-07T01:42:43;98957.41;;;22.46;52.74
43312;BME280;30041;48.300;16.352;2023-08-07T01:45:09;98960.66;;;22.48;52.84
43312;BME280;30041;48.300;16.352;2023-08-07T01:47:35;98964.44;;;22.47;52.88
43312;BME280;30041;48.300;16.352;2023-08-07T01:50:00;98961.75;;;22.47;52.87
43312;BME280;30041;48.300;16.352;2023-08-07T01:52:26;98962.00;;;22.45;52.54
43312;BME280;30041;48.300;16.352;2023-08-07T01:54:51;98960.09;;;22.46;52.76
43312;BME280;30041;48.300;16.352;2023-08-07T01:57:17;98969.03;;;22.46;52.85
43312;BME280;30041;48.300;16.352;2023-08-07T01:59:42;98967.41;;;22.45;52.76
43312;BME280;30041;48.300;16.352;2023-08-07T02:02:08;98979.00;;;22.46;52.91
43312;BME280;30041;48.300;16.352;2023-08-07T02:04:33;98997.09;;;22.45;52.68
43312;BME280;30041;48.300;16.352;2023-08-07T02:06:59;98977.38;;;22.45;52.64
43312;BME280;30041;48.300;16.352;2023-08-07T02:09:24;98981.72;;;22.46;52.71
43312;BME280;30041;48.300;16.352;2023-08-07T02:11:49;98990.91;;;22.45;52.62
43312;BME280;30041;48.300;16.352;2023-08-07T02:14:15;98981.97;;;22.44;52.89
43312;BME280;30041;48.300;16.352;2023-08-07T02:16:40;98985.50;;;22.45;52.74
43312;BME280;30041;48.300;16.352;2023-08-07T02:19:06;98981.97;;;22.44;52.55
43312;BME280;30041;48.300;16.352;2023-08-07T02:21:31;98995.47;;;22.44;52.83
43312;BME280;30041;48.300;16.352;2023-08-07T02:23:57;98980.34;;;22.43;52.85
43312;BME280;30041;48.300;16.352;2023-08-07T02:26:22;98980.34;;;22.43;52.78
43312;BME280;30041;48.300;16.352;2023-08-07T02:28:48;98984.94;;;22.43;52.67
43312;BME280;30041;48.300;16.352;2023-08-07T02:31:13;98985.75;;;22.43;52.85
43312;BME280;30041;48.300;16.352;2023-08-07T02:33:39;98979.53;;;22.43;52.67
43312;BME280;30041;48.300;16.352;2023-08-07T02:36:04;98978.72;;;22.42;52.70
43312;BME280;30041;48.300;16.352;2023-08-07T02:38:30;98977.63;;;22.43;52.83
43312;BME280;30041;48.300;16.352;2023-08-07T02:40:55;98967.94;;;22.42;52.55
43312;BME280;30041;48.300;16.352;2023-08-07T02:43:20;98965.22;;;22.42;52.67
43312;BME280;30041;48.300;16.352;2023-08-07T02:45:46;98967.94;;;22.42;52.49
43312;BME280;30041;48.300;16.352;2023-08-07T02:48:11;98964.41;;;22.42;52.66
43312;BME280;30041;48.300;16.352;2023-08-07T02:50:37;98966.28;;;22.41;52.79
43312;BME280;30041;48.300;16.352;2023-08-07T02:53:02;98948.47;;;22.40;52.67
43312;BME280;30041;48.300;16.352;2023-08-07T02:55:28;98961.72;;;22.42;52.59
43312;BME280;30041;48.300;16.352;2023-08-07T02:57:53;98952.78;;;22.41;52.70
43312;BME280;30041;48.300;16.352;2023-08-07T03:00:19;98960.09;;;22.41;52.65
43312;BME280;30041;48.300;16.352;2023-08-07T03:02:44;98961.16;;;22.40;52.52
43312;BME280;30041;48.300;16.352;2023-08-07T03:05:09;98953.88;;;22.40;52.80
43312;BME280;30041;48.300;16.352;2023-08-07T03:07:35;98957.63;;;22.39;52.83
43312;BME280;30041;48.300;16.352;2023-08-07T03:10:00;98953.06;;;22.40;52.36
43312;BME280;30041;48.300;16.352;2023-08-07T03:12:26;98943.31;;;22.38;52.53
43312;BME280;30041;48.300;16.352;2023-08-07T03:14:51;98956.00;;;22.38;52.63
43312;BME280;30041;48.300;16.352;2023-08-07T03:17:17;98954.13;;;22.38;52.51
43312;BME280;30041;48.300;16.352;2023-08-07T03:19:43;98956.00;;;22.38;52.67
43312;BME280;30041;48.300;16.352;2023-08-07T03:22:09;98949.81;;;22.37;52.54
43312;BME280;30041;48.300;16.352;2023-08-07T03:24:34;98945.22;;;22.38;52.63
43312;BME280;30041;48.300;16.352;2023-08-07T03:27:00;98953.31;;;22.38;52.58
43312;BME280;30041;48.300;16.352;2023-08-07T03:29:25;98950.63;;;22.38;52.76
43312;BME280;30041;48.300;16.352;2023-08-07T03:31:51;98939.25;;;22.36;52.75
43312;BME280;30041;48.300;16.352;2023-08-07T03:34:17;98946.28;;;22.37;52.64
43312;BME280;30041;48.300;16.352;2023-08-07T03:36:42;98940.34;;;22.35;52.63
43312;BME280;30041;48.300;16.352;2023-08-07T03:39:07;98955.47;;;22.36;52.63
43312;BME280;30041;48.300;16.352;2023-08-07T03:41:33;98946.56;;;22.35;52.64
43312;BME280;30041;48.300;16.352;2023-08-07T03:43:59;98954.38;;;22.37;52.47
43312;BME280;30041;48.300;16.352;2023-08-07T03:46:24;98947.91;;;22.38;52.63
43312;BME280;30041;48.300;16.352;2023-08-07T03:48:49;98948.16;;;22.36;52.66
43312;BME280;30041;48.300;16.352;2023-08-07T03:51:15;98959.78;;;22.37;52.33
43312;BME280;30041;48.300;16.352;2023-08-07T03:53:40;98950.06;;;22.36;52.70
43312;BME280;30041;48.300;16.352;2023-08-07T03:56:06;98956.53;;;22.35;52.32
43312;BME280;30041;48.300;16.352;2023-08-07T03:58:31;98949.50;;;22.34;52.67
43312;BME280;30041;48.300;16.352;2023-08-07T04:00:57;98949.50;;;22.34;52.33
43312;BME280;30041;48.300;16.352;2023-08-07T04:03:22;98961.13;;;22.34;52.51
43312;BME280;30041;48.300;16.352;2023-08-07T04:05:52;98957.59;;;22.34;52.64
43312;BME280;30041;48.300;16.352;2023-08-07T04:08:17;98956.53;;;22.35;52.68
43312;BME280;30041;48.300;16.352;2023-08-07T04:10:43;98951.16;;;22.35;52.35
43312;BME280;30041;48.300;16.352;2023-08-07T04:13:08;98958.16;;;22.36;52.45
43312;BME280;30041;48.300;16.352;2023-08-07T04:15:34;98951.16;;;22.35;52.57
43312;BME280;30041;48.300;16.352;2023-08-07T04:17:59;98953.84;;;22.35;52.37
43312;BME280;30041;48.300;16.352;2023-08-07T04:20:25;98956.78;;;22.33;52.51
43312;BME280;30041;48.300;16.352;2023-08-07T04:22:50;98940.59;;;22.33;52.49
43312;BME280;30041;48.300;16.352;2023-08-07T04:25:16;98947.91;;;22.33;52.49
43312;BME280;30041;48.300;16.352;2023-08-07T04:27:41;98938.16;;;22.32;52.71
43312;BME280;30041;48.300;16.352;2023-08-07T04:30:07;98948.94;;;22.32;52.46
43312;BME280;30041;48.300;16.352;2023-08-07T04:32:32;98951.66;;;22.32;52.71
43312;BME280;30041;48.300;16.352;2023-08-07T04:34:58;98951.41;;;22.33;52.97
43312;BME280;30041;48.300;16.352;2023-08-07T04:37:24;98954.09;;;22.33;53.21
43312;BME280;30041;48.300;16.352;2023-08-07T04:39:49;98954.09;;;22.33;52.92
43312;BME280;30041;48.300;16.352;2023-08-07T04:42:15;98939.78;;;22.33;52.52
43312;BME280;30041;48.300;16.352;2023-08-07T04:44:40;98957.84;;;22.32;52.45
43312;BME280;30041;48.300;16.352;2023-08-07T04:47:06;98939.78;;;22.33;51.89
43312;BME280;30041;48.300;16.352;2023-08-07T04:49:31;98937.09;;;22.33;51.57
43312;BME280;30041;48.300;16.352;2023-08-07T04:51:57;98948.94;;;22.32;51.58
43312;BME280;30041;48.300;16.352;2023-08-07T04:54:22;98940.84;;;22.32;51.05
43312;BME280;30041;48.300;16.352;2023-08-07T04:56:48;98936.53;;;22.31;51.46
43312;BME280;30041;48.300;16.352;2023-08-07T04:59:13;98934.66;;;22.31;51.90
43312;BME280;30041;48.300;16.352;2023-08-07T05:01:39;98942.50;;;22.33;52.14
43312;BME280;30041;48.300;16.352;2023-08-07T05:04:04;98913.06;;;22.31;51.96
43312;BME280;30041;48.300;16.352;2023-08-07T05:06:31;98940.03;;;22.31;52.30
43312;BME280;30041;48.300;16.352;2023-08-07T05:08:56;98938.16;;;22.32;52.14
43312;BME280;30041;48.300;16.352;2023-08-07T05:11:22;98933.84;;;22.31;52.46
43312;BME280;30041;48.300;16.352;2023-08-07T05:13:47;98948.41;;;22.30;52.32
43312;BME280;30041;48.300;16.352;2023-08-07T05:16:12;98950.84;;;22.31;52.19
43312;BME280;30041;48.300;16.352;2023-08-07T05:18:38;98952.22;;;22.34;52.56
43312;BME280;30041;48.300;16.352;2023-08-07T05:21:03;98944.09;;;22.34;52.71
43312;BME280;30041;48.300;16.352;2023-08-07T05:23:29;98956.53;;;22.35;53.13
43312;BME280;30041;48.300;16.352;2023-08-07T05:25:54;98953.00;;;22.34;53.07
43312;BME280;30041;48.300;16.352;2023-08-07T05:28:19;98955.72;;;22.34;52.78
43312;BME280;30041;48.300;16.352;2023-08-07T05:30:45;98954.38;;;22.37;52.95
43312;BME280;30041;48.300;16.352;2023-08-07T05:33:10;98958.47;;;22.40;52.62
43312;BME280;30041;48.300;16.352;2023-08-07T05:35:38;98962.75;;;22.35;52.66
43312;BME280;30041;48.300;16.352;2023-08-07T05:38:03;98977.31;;;22.34;52.77
43312;BME280;30041;48.300;16.352;2023-08-07T05:40:29;98965.94;;;22.32;52.76
43312;BME280;30041;48.300;16.352;2023-08-07T05:42:54;98970.28;;;22.33;52.99
43312;BME280;30041;48.300;16.352;2023-08-07T05:45:20;98980.84;;;22.35;53.07
43312;BME280;30041;48.300;16.352;2023-08-07T05:47:45;98992.16;;;22.37;52.96
43312;BME280;30041;48.300;16.352;2023-08-07T05:50:10;98993.81;;;22.38;52.94
43312;BME280;30041;48.300;16.352;2023-08-07T05:52:36;98993.00;;;22.37;53.05
43312;BME280;30041;48.300;16.352;2023-08-07T05:55:02;99002.97;;;22.37;52.89
43312;BME280;30041;48.300;16.352;2023-08-07T05:57:27;99011.94;;;22.10;47.90
43312;BME280;30041;48.300;16.352;2023-08-07T05:59:53;98995.50;;;21.85;47.61
43312;BME280;30041;48.300;16.352;2023-08-07T06:02:19;99005.06;;;21.97;49.66
43312;BME280;30041;48.300;16.352;2023-08-07T06:04:44;99007.03;;;22.07;50.22
43312;BME280;30041;48.300;16.352;2023-08-07T06:07:10;99010.59;;;22.13;50.90
43312;BME280;30041;48.300;16.352;2023-08-07T06:09:35;99020.88;;;22.16;50.95
43312;BME280;30041;48.300;16.352;2023-08-07T06:12:01;99014.13;;;22.18;51.15
43312;BME280;30041;48.300;16.352;2023-08-07T06:14:26;99033.59;;;22.21;51.19
43312;BME280;30041;48.300;16.352;2023-08-07T06:16:52;99016.59;;;22.20;51.12
43312;BME280;30041;48.300;16.352;2023-08-07T06:19:17;99014.69;;;22.21;51.13
43312;BME280;30041;48.300;16.352;2023-08-07T06:21:43;99001.44;;;22.19;51.22
43312;BME280;30041;48.300;16.352;2023-08-07T06:24:09;99004.72;;;22.21;51.38
43312;BME280;30041;48.300;16.352;2023-08-07T06:26:34;98996.16;;;22.24;51.57
43312;BME280;30041;48.300;16.352;2023-08-07T06:29:00;98990.47;;;22.26;51.87
43312;BME280;30041;48.300;16.352;2023-08-07T06:31:26;98971.56;;;22.26;51.56
43312;BME280;30041;48.300;16.352;2023-08-07T06:33:51;98979.59;;;22.21;50.68
43312;BME280;30041;48.300;16.352;2023-08-07T06:36:16;98984.19;;;22.20;51.24
43312;BME280;30041;48.300;16.352;2023-08-07T06:38:42;98960.72;;;22.21;51.42
43312;BME280;30041;48.300;16.352;2023-08-07T06:41:07;98963.19;;;22.22;51.47
43312;BME280;30041;48.300;16.352;2023-08-07T06:43:33;98957.81;;;22.22;51.62
43312;BME280;30041;48.300;16.352;2023-08-07T06:45:59;98944.03;;;22.24;51.80
43312;BME280;30041;48.300;16.352;2023-08-07T06:48:24;98940.28;;;22.25;51.71
43312;BME280;30041;48.300;16.352;2023-08-07T06:50:50;98982.66;;;22.24;51.74
43312;BME280;30041;48.300;16.352;2023-08-07T06:53:16;98983.47;;;22.25;51.71
43312;BME280;30041;48.300;16.352;2023-08-07T06:55:42;98986.41;;;22.23;51.97
43312;BME280;30041;48.300;16.352;2023-08-07T06:58:08;98990.75;;;22.24;51.75
43312;BME280;30041;48.300;16.352;2023-08-07T07:00:35;99000.72;;;22.24;51.91
43312;BME280;30041;48.300;16.352;2023-08-07T07:03:01;99012.34;;;22.24;51.93
43312;BME280;30041;48.300;16.352;2023-08-07T07:05:27;99015.03;;;22.24;52.06
43312;BME280;30041;48.300;16.352;2023-08-07T07:07:52;99014.19;;;22.24;52.03
43312;BME280;30041;48.300;16.352;2023-08-07T07:10:18;99022.31;;;22.24;52.06
43312;BME280;30041;48.300;16.352;2023-08-07T07:12:43;99028.78;;;22.23;51.90
43312;BME280;30041;48.300;16.352;2023-08-07T07:15:09;99061.97;;;22.23;52.02
43312;BME280;30041;48.300;16.352;2023-08-07T07:17:35;99032.03;;;22.25;51.95
43312;BME280;30041;48.300;16.352;2023-08-07T07:20:00;99046.88;;;22.22;52.02
43312;BME280;30041;48.300;16.352;2023-08-07T07:22:26;99054.16;;;22.22;52.16
43312;BME280;30041;48.300;16.352;2023-08-07T07:24:51;99061.97;;;22.23;52.13
43312;BME280;30041;48.300;16.352;2023-08-07T07:27:17;99061.97;;;22.23;52.37
43312;BME280;30041;48.300;16.352;2023-08-07T07:29:42;99083.56;;;22.23;52.35
43312;BME280;30041;48.300;16.352;2023-08-07T07:32:08;99043.09;;;22.23;52.23
43312;BME280;30041;48.300;16.352;2023-08-07T07:34:33;99058.47;;;22.23;52.29
43312;BME280;30041;48.300;16.352;2023-08-07T07:36:59;99066.56;;;22.23;52.27
43312;BME280;30041;48.300;16.352;2023-08-07T07:39:24;99047.91;;;22.21;52.45
43312;BME280;30041;48.300;16.352;2023-08-07T07:41:50;99087.34;;;22.22;52.36
43312;BME280;30041;48.300;16.352;2023-08-07T07:44:15;99077.59;;;22.21;52.25
43312;BME280;30041;48.300;16.352;2023-08-07T07:46:41;99064.97;;;22.22;52.15
43312;BME280;30041;48.300;16.352;2023-08-07T07:49:06;99074.06;;;22.21;52.49
43312;BME280;30041;48.300;16.352;2023-08-07T07:51:32;99057.88;;;22.21;52.31
43312;BME280;30041;48.300;16.352;2023-08-07T07:53:58;99080.88;;;22.23;52.27
43312;BME280;30041;48.300;16.352;2023-08-07T07:56:24;99053.88;;;22.23;52.48
43312;BME280;30041;48.300;16.352;2023-08-07T07:58:49;99070.34;;;22.22;52.23
43312;BME280;30041;48.300;16.352;2023-08-07T08:01:15;99092.97;;;22.21;52.39
43312;BME280;30041;48.300;16.352;2023-08-07T08:03:40;99090.28;;;22.21;52.21
43312;BME280;30041;48.300;16.352;2023-08-07T08:06:06;99084.88;;;22.21;52.44
43312;BME280;30041;48.300;16.352;2023-08-07T08:08:31;99080.56;;;22.20;52.16
43312;BME280;30041;48.300;16.352;2023-08-07T08:10:57;99098.38;;;22.21;52.36
43312;BME280;30041;48.300;16.352;2023-08-07T08:13:22;99092.97;;;22.21;52.26
43312;BME280;30041;48.300;16.352;2023-08-07T08:15:48;99101.88;;;22.21;52.10
43312;BME280;30041;48.300;16.352;2023-08-07T08:18:13;99096.75;;;22.20;52.44
43312;BME280;30041;48.300;16.352;2023-08-07T08:20:39;99114.56;;;22.21;52.39
43312;BME280;30041;48.300;16.352;2023-08-07T08:23:04;99107.28;;;22.21;52.32
43312;BME280;30041;48.300;16.352;2023-08-07T08:25:31;99115.91;;;22.18;52.00
43312;BME280;30041;48.300;16.352;2023-08-07T08:27:56;99128.88;;;22.21;52.23
43312;BME280;30041;48.300;16.352;2023-08-07T08:30:22;99118.34;;;22.20;52.39
43312;BME280;30041;48.300;16.352;2023-08-07T08:32:48;99122.91;;;22.19;51.99
43312;BME280;30041;48.300;16.352;2023-08-07T08:35:13;99137.47;;;22.18;52.27
43312;BME280;30041;48.300;16.352;2023-08-07T08:37:38;99133.69;;;22.19;52.18
43312;BME280;30041;48.300;16.352;2023-08-07T08:40:04;99138.84;;;22.21;52.14
43312;BME280;30041;48.300;16.352;2023-08-07T08:42:30;99143.44;;;22.20;52.30
43312;BME280;30041;48.300;16.352;2023-08-07T08:44:56;99139.94;;;22.20;52.19
43312;BME280;30041;48.300;16.352;2023-08-07T08:47:22;99152.34;;;22.21;52.10
43312;BME280;30041;48.300;16.352;2023-08-07T08:49:58;99165.84;;;22.21;52.01
43312;BME280;30041;48.300;16.352;2023-08-07T08:52:26;99166.66;;;22.21;51.96
43312;BME280;30041;48.300;16.352;2023-08-07T08:54:52;99166.09;;;22.19;52.10
43312;BME280;30041;48.300;16.352;2023-08-07T08:57:18;99175.84;;;22.20;52.16
43312;BME280;30041;48.300;16.352;2023-08-07T08:59:45;99169.63;;;22.20;52.30
43312;BME280;30041;48.300;16.352;2023-08-07T09:02:11;99170.69;;;22.18;52.39
43312;BME280;30041;48.300;16.352;2023-08-07T09:04:36;99176.88;;;22.19;52.08
43312;BME280;30041;48.300;16.352;2023-08-07T09:07:02;99192.03;;;22.20;51.89
43312;BME280;30041;48.300;16.352;2023-08-07T09:09:29;99196.88;;;22.18;51.97
43312;BME280;30041;48.300;16.352;2023-08-07T09:11:57;99198.75;;;22.17;52.02
43312;BME280;30041;48.300;16.352;2023-08-07T09:14:26;99195.25;;;22.17;52.06
43312;BME280;30041;48.300;16.352;2023-08-07T09:16:54;99201.47;;;22.17;52.12
43312;BME280;30041;48.300;16.352;2023-08-07T09:19:20;99216.56;;;22.18;52.11
43312;BME280;30041;48.300;16.352;2023-08-07T09:21:45;99212.25;;;22.17;52.11
43312;BME280;30041;48.300;16.352;2023-08-07T09:24:11;99214.94;;;22.17;52.27
43312;BME280;30041;48.300;16.352;2023-08-07T09:26:37;99217.09;;;22.15;51.96
43312;BME280;30041;48.300;16.352;2023-08-07T09:29:04;99220.34;;;22.17;52.02
43312;BME280;30041;48.300;16.352;2023-08-07T09:31:30;99216.28;;;22.15;52.02
43312;BME280;30041;48.300;16.352;2023-08-07T09:34:01;99225.19;;;22.15;52.21
43312;BME280;30041;48.300;16.352;2023-08-07T09:36:26;99215.19;;;22.16;51.97
43312;BME280;30041;48.300;16.352;2023-08-07T09:38:54;99227.06;;;22.15;52.07
43312;BME280;30041;48.300;16.352;2023-08-07T09:41:20;99241.38;;;22.15;52.04
43312;BME280;30041;48.300;16.352;2023-08-07T09:43:45;99227.88;;;22.15;52.06
43312;BME280;30041;48.300;16.352;2023-08-07T09:46:11;99237.88;;;22.15;51.84
43312;BME280;30041;48.300;16.352;2023-08-07T09:48:41;99241.38;;;22.15;51.87
43312;BME280;30041;48.300;16.352;2023-08-07T09:51:07;99247.81;;;22.14;52.16
43312;BME280;30041;48.300;16.352;2023-08-07T09:53:32;99239.72;;;22.14;52.01
43312;BME280;30041;48.300;16.352;2023-08-07T09:55:58;99245.97;;;22.15;51.91
43312;BME280;30041;48.300;16.352;2023-08-07T09:58:24;99261.88;;;22.16;51.97
43312;BME280;30041;48.300;16.352;2023-08-07T10:00:51;99260.25;;;22.15;51.75
43312;BME280;30041;48.300;16.352;2023-08-07T10:03:16;99268.13;;;22.17;51.78
43312;BME280;30041;48.300;16.352;2023-08-07T10:05:43;99260.25;;;22.15;52.00
43312;BME280;30041;48.300;16.352;2023-08-07T10:08:10;99262.16;;;22.15;51.73
43312;BME280;30041;48.300;16.352;2023-08-07T10:10:37;99256.47;;;22.16;51.78
43312;BME280;30041;48.300;16.352;2023-08-07T10:13:03;99273.75;;;22.15;51.85
43312;BME280;30041;48.300;16.352;2023-08-07T10:15:29;99274.31;;;22.17;51.74
43312;BME280;30041;48.300;16.352;2023-08-07T10:17:55;99271.06;;;22.15;51.78
43312;BME280;30041;48.300;16.352;2023-08-07T10:20:21;99289.97;;;22.15;51.92
43312;BME280;30041;48.300;16.352;2023-08-07T10:22:48;99285.03;;;22.12;51.92
43312;BME280;30041;48.300;16.352;2023-08-07T10:25:16;99287.50;;;22.14;52.00
43312;BME280;30041;48.300;16.352;2023-08-07T10:27:46;99286.69;;;22.13;51.89
43312;BME280;30041;48.300;16.352;2023-08-07T10:30:14;99284.78;;;22.14;51.79
43312;BME280;30041;48.300;16.352;2023-08-07T10:32:42;99285.88;;;22.13;51.96
43312;BME280;30041;48.300;16.352;2023-08-07T10:35:09;99284.78;;;22.14;51.79
43312;BME280;30041;48.300;16.352;2023-08-07T10:37:44;99268.59;;;22.14;51.74
43312;BME280;30041;48.300;16.352;2023-08-07T10:40:13;99276.94;;;22.12;51.69
43312;BME280;30041;48.300;16.352;2023-08-07T10:42:59;99305.56;;;22.13;51.85
43312;BME280;30041;48.300;16.352;2023-08-07T10:45:26;99283.19;;;22.13;51.71
43312;BME280;30041;48.300;16.352;2023-08-07T10:48:10;99298.53;;;22.12;51.86
43312;BME280;30041;48.300;16.352;2023-08-07T10:50:57;99310.97;;;22.13;51.75
43312;BME280;30041;48.300;16.352;2023-08-07T10:53:33;99302.06;;;22.13;51.59
43312;BME280;30041;48.300;16.352;2023-08-07T10:56:51;99301.22;;;22.12;51.73
43312;BME280;30041;48.300;16.352;2023-08-07T10:58:51;99305.00;;;22.11;51.63
43312;BME280;30041;48.300;16.352;2023-08-07T11:03:58;99310.53;;;22.00;50.97
43312;BME280;30041;48.300;16.352;2023-08-07T11:06:28;99309.22;;;22.02;51.26
43312;BME280;30041;48.300;16.352;2023-08-07T11:08:54;99309.78;;;22.04;51.45
43312;BME280;30041;48.300;16.352;2023-08-07T11:11:20;99312.78;;;22.08;51.26
43312;BME280;30041;48.300;16.352;2023-08-07T11:13:45;99315.22;;;22.09;51.27
43312;BME280;30041;48.300;16.352;2023-08-07T11:16:12;99337.91;;;22.08;51.47
43312;BME280;30041;48.300;16.352;2023-08-07T11:18:37;99316.03;;;22.10;51.40
43312;BME280;30041;48.300;16.352;2023-08-07T11:21:03;99325.22;;;22.09;51.21
43312;BME280;30041;48.300;16.352;2023-08-07T11:23:29;99324.41;;;22.08;51.50
43312;BME280;30041;48.300;16.352;2023-08-07T11:25:55;99324.41;;;22.08;51.64
43312;BME280;30041;48.300;16.352;2023-08-07T11:28:21;99337.06;;;22.08;51.69
43312;BME280;30041;48.300;16.352;2023-08-07T11:30:50;99347.13;;;22.12;51.79
43312;BME280;30041;48.300;16.352;2023-08-07T11:33:16;99329.31;;;22.11;51.79
43312;BME280;30041;48.300;16.352;2023-08-07T11:35:43;99333.06;;;22.10;51.77
43312;BME280;30041;48.300;16.352;2023-08-07T11:38:08;99341.97;;;22.11;51.79
43312;BME280;30041;48.300;16.352;2023-08-07T11:40:35;99321.19;;;22.11;51.82
43312;BME280;30041;48.300;16.352;2023-08-07T11:43:01;99325.53;;;22.12;51.86
43312;BME280;30041;48.300;16.352;2023-08-07T11:45:27;99337.41;;;22.11;51.73
43312;BME280;30041;48.300;16.352;2023-08-07T11:47:52;99336.81;;;22.09;51.75
43312;BME280;30041;48.300;16.352;2023-08-07T11:50:18;99344.69;;;22.11;51.94
43312;BME280;30041;48.300;16.352;2023-08-07T11:52:44;99325.53;;;22.12;51.65
43312;BME280;30041;48.300;16.352;2023-08-07T11:55:09;99346.56;;;22.10;51.62
43312;BME280;30041;48.300;16.352;2023-08-07T11:57:38;99349.00;;;22.12;52.08
43312;BME280;30041;48.300;16.352;2023-08-07T12:00:07;99354.66;;;22.10;52.10
43312;BME280;30041;48.300;16.352;2023-08-07T12:02:35;99348.44;;;22.10;51.89
43312;BME280;30041;48.300;16.352;2023-08-07T12:05:00;99362.75;;;22.10;51.93
43312;BME280;30041;48.300;16.352;2023-08-07T12:07:27;99353.81;;;22.10;51.83
43312;BME280;30041;48.300;16.352;2023-08-07T12:09:54;99366.50;;;22.09;51.97
43312;BME280;30041;48.300;16.352;2023-08-07T12:12:20;99364.91;;;22.08;51.92
43312;BME280;30041;48.300;16.352;2023-08-07T12:14:45;99354.34;;;22.07;52.06
43312;BME280;30041;48.300;16.352;2023-08-07T12:17:10;99361.34;;;22.08;51.93
43312;BME280;30041;48.300;16.352;2023-08-07T12:19:39;99363.81;;;22.09;51.92
43312;BME280;30041;48.300;16.352;2023-08-07T12:22:10;99373.81;;;22.09;51.95
43312;BME280;30041;48.300;16.352;2023-08-07T12:24:36;99368.41;;;22.09;51.85
43312;BME280;30041;48.300;16.352;2023-08-07T12:27:02;99363.81;;;22.09;51.99
43312;BME280;30041;48.300;16.352;2023-08-07T12:29:27;99370.88;;;22.10;51.96
43312;BME280;30041;48.300;16.352;2023-08-07T12:31:53;99373.81;;;22.09;51.91
43312;BME280;30041;48.300;16.352;2023-08-07T12:34:18;99379.19;;;22.09;52.25
43312;BME280;30041;48.300;16.352;2023-08-07T12:36:44;99388.09;;;22.09;52.00
43312;BME280;30041;48.300;16.352;2023-08-07T12:39:09;99405.38;;;22.08;52.06
43312;BME280;30041;48.300;16.352;2023-08-07T12:41:35;99388.34;;;22.08;52.18
43312;BME280;30041;48.300;16.352;2023-08-07T12:44:00;99406.19;;;22.09;52.39
43312;BME280;30041;48.300;16.352;2023-08-07T12:46:26;99396.19;;;22.09;52.45
43312;BME280;30041;48.300;16.352;2023-08-07T12:48:51;99391.88;;;22.08;52.41
43312;BME280;30041;48.300;16.352;2023-08-07T12:51:17;99398.91;;;22.09;52.31
43312;BME280;30041;48.300;16.352;2023-08-07T12:53:42;99380.81;;;22.10;52.19
43312;BME280;30041;48.300;16.352;2023-08-07T12:56:08;99390.81;;;22.09;51.99
43312;BME280;30041;48.300;16.352;2023-08-07T12:58:33;99390.00;;;22.09;52.15
43312;BME280;30041;48.300;16.352;2023-08-07T13:00:58;99382.72;;;22.09;52.18